createdAt,value
2022-11-07T00:01:19.544Z,83.60
2022-11-07T00:04:22.369Z,83.51
2022-11-07T00:07:25.025Z,84.34
2022-11-07T00:10:27.967Z,84.42
2022-11-07T00:13:31.336Z,84.17
2022-11-07T00:16:34.213Z,84.57
2022-11-07T00:19:36.828Z,84.49
2022-11-07T00:22:39.719Z,84.10
2022-11-07T00:25:42.663Z,83.49
2022-11-07T00:28:46.283Z,83.26
2022-11-07T00:31:49.587Z,83.25
2022-11-07T00:34:52.579Z,82.78
2022-11-07T00:37:55.951Z,82.92
2022-11-07T00:41:04.281Z,82.80
2022-11-07T00:44:07.181Z,82.72
2022-11-07T00:47:10.013Z,82.07
2022-11-07T00:50:12.671Z,82.53
2022-11-07T00:53:16.015Z,81.96
2022-11-07T00:56:22.310Z,82.54
2022-11-07T00:59:25.251Z,81.89
2022-11-07T01:02:27.915Z,81.70
2022-11-07T01:05:30.892Z,80.58
2022-11-07T01:08:33.550Z,81.71
2022-11-07T01:11:38.826Z,80.91
2022-11-07T01:14:41.746Z,81.04
2022-11-07T01:17:44.955Z,80.81
2022-11-07T01:20:48.022Z,80.66
2022-11-07T01:23:50.976Z,81.54
2022-11-07T01:26:53.638Z,82.00
2022-11-07T01:29:56.700Z,82.41
2022-11-07T01:32:59.427Z,82.88
2022-11-07T01:36:06.164Z,82.18
2022-11-07T01:39:12.103Z,83.02
2022-11-07T01:42:15.017Z,82.94
2022-11-07T01:45:24.628Z,83.40
2022-11-07T01:48:28.912Z,84.38
2022-11-07T01:51:37.121Z,85.57
2022-11-07T01:55:21.401Z,85.24
2022-11-07T01:58:24.080Z,85.04
2022-11-07T02:01:27.377Z,84.37
2022-11-07T02:04:31.604Z,84.74
2022-11-07T02:07:34.363Z,84.93
2022-11-07T02:10:39.692Z,84.85
2022-11-07T02:13:42.617Z,84.72
2022-11-07T02:16:46.575Z,85.19
2022-11-07T02:19:52.032Z,85.71
2022-11-07T02:23:01.364Z,85.92
2022-11-07T02:26:04.043Z,85.69
2022-11-07T02:29:10.364Z,85.56
2022-11-07T02:32:13.291Z,86.05
2022-11-07T02:35:42.742Z,86.13
2022-11-07T02:38:48.974Z,86.44
2022-11-07T02:41:53.472Z,86.46
2022-11-07T02:44:56.096Z,86.47
2022-11-07T02:47:59.084Z,86.31
2022-11-07T02:51:01.668Z,86.23
2022-11-07T02:54:04.910Z,86.46
2022-11-07T02:57:07.456Z,86.33
2022-11-07T03:00:13.220Z,86.94
2022-11-07T03:03:16.185Z,87.44
2022-11-07T03:06:28.333Z,87.45
2022-11-07T03:09:30.932Z,87.87
2022-11-07T03:12:33.779Z,87.95
2022-11-07T03:15:36.426Z,87.98
2022-11-07T03:18:39.619Z,88.11
2022-11-07T03:21:42.192Z,88.23
2022-11-07T03:24:45.277Z,88.39
2022-11-07T03:27:49.012Z,88.38
2022-11-07T03:30:52.471Z,88.34
2022-11-07T03:33:54.996Z,88.26
2022-11-07T03:36:57.855Z,88.37
2022-11-07T03:40:00.429Z,88.33
2022-11-07T03:43:03.562Z,88.51
2022-11-07T03:46:06.247Z,88.70
2022-11-07T03:49:09.356Z,88.77
2022-11-07T03:52:12.903Z,89.21
2022-11-07T03:55:18.447Z,88.77
2022-11-07T03:58:21.238Z,88.92
2022-11-07T04:01:24.267Z,89.00
2022-11-07T04:04:28.656Z,88.94
2022-11-07T04:07:31.438Z,89.17
2022-11-07T04:10:34.247Z,89.09
2022-11-07T04:13:55.536Z,89.40
2022-11-07T04:17:17.333Z,89.55
2022-11-07T04:20:19.967Z,89.35
2022-11-07T04:23:22.891Z,89.66
2022-11-07T04:26:43.911Z,89.66
2022-11-07T04:29:46.757Z,89.84
2022-11-07T04:32:57.107Z,89.49
2022-11-07T04:35:59.980Z,89.29
2022-11-07T04:39:02.508Z,89.60
2022-11-07T04:42:07.172Z,89.87
2022-11-07T04:45:10.845Z,89.95
2022-11-07T04:48:14.998Z,89.45
2022-11-07T04:51:21.506Z,89.98
2022-11-07T04:54:25.481Z,90.28
2022-11-07T04:57:29.215Z,90.34
2022-11-07T05:00:32.124Z,90.25
2022-11-07T05:03:40.371Z,89.91
2022-11-07T05:06:44.603Z,90.12
2022-11-07T05:09:47.330Z,89.30
2022-11-07T05:12:50.891Z,88.48
2022-11-07T05:15:53.654Z,88.72
2022-11-07T05:18:57.772Z,88.71
2022-11-07T05:22:19.130Z,88.54
2022-11-07T05:25:22.044Z,88.55
2022-11-07T05:28:38.234Z,88.84
2022-11-07T05:31:41.554Z,88.87
2022-11-07T05:34:45.304Z,89.07
2022-11-07T05:37:51.615Z,89.31
2022-11-07T05:40:54.225Z,89.00
2022-11-07T05:43:57.471Z,88.67
2022-11-07T05:47:00.756Z,88.17
2022-11-07T05:50:03.724Z,87.83
2022-11-07T05:53:06.990Z,88.14
2022-11-07T05:56:09.908Z,89.04
2022-11-07T05:59:13.145Z,89.95
2022-11-07T06:02:16.344Z,90.32
2022-11-07T06:05:23.131Z,90.76
2022-11-07T06:08:27.145Z,91.24
2022-11-07T06:11:32.814Z,90.81
2022-11-07T06:14:35.440Z,91.45
2022-11-07T06:17:38.918Z,91.61
2022-11-07T06:20:41.655Z,91.71
2022-11-07T06:23:44.819Z,91.84
2022-11-07T06:26:47.342Z,91.92
2022-11-07T06:29:50.231Z,92.02
2022-11-07T06:32:52.836Z,91.89
2022-11-07T06:35:55.927Z,92.26
2022-11-07T06:38:58.472Z,92.37
2022-11-07T06:42:03.434Z,91.91
2022-11-07T06:45:06.635Z,91.76
2022-11-07T06:48:10.200Z,91.49
2022-11-07T06:51:12.911Z,92.27
2022-11-07T06:54:15.863Z,92.20
2022-11-07T06:57:20.752Z,92.00
2022-11-07T07:00:23.530Z,91.75
2022-11-07T07:03:26.365Z,91.09
2022-11-07T07:06:29.280Z,90.64
2022-11-07T07:09:31.976Z,90.83
2022-11-07T07:12:35.046Z,90.85
2022-11-07T07:15:50.452Z,90.85
2022-11-07T07:18:54.192Z,90.59
2022-11-07T07:21:56.807Z,90.55
2022-11-07T07:24:59.950Z,90.35
2022-11-07T07:28:03.091Z,90.34
2022-11-07T07:31:19.067Z,90.17
2022-11-07T07:34:21.605Z,90.11
2022-11-07T07:37:24.556Z,89.78
2022-11-07T07:40:28.641Z,89.40
2022-11-07T07:43:31.987Z,89.38
2022-11-07T07:46:34.531Z,89.06
2022-11-07T07:49:37.566Z,88.77
2022-11-07T07:52:40.161Z,88.37
2022-11-07T07:55:44.032Z,87.99
2022-11-07T07:58:46.834Z,87.82
2022-11-07T08:01:55.163Z,87.48
2022-11-07T08:05:01.472Z,87.45
2022-11-07T08:08:05.406Z,87.17
2022-11-07T08:11:10.310Z,87.24
2022-11-07T08:14:13.220Z,86.82
2022-11-07T08:17:16.141Z,86.71
2022-11-07T08:20:28.076Z,86.50
2022-11-07T08:23:31.473Z,86.43
2022-11-07T08:26:34.458Z,86.01
2022-11-07T08:29:37.409Z,85.76
2022-11-07T08:32:39.999Z,85.38
2022-11-07T08:35:43.016Z,85.32
2022-11-07T08:38:45.777Z,84.98
2022-11-07T08:41:48.664Z,84.60
2022-11-07T08:44:51.300Z,84.65
2022-11-07T08:47:58.915Z,84.40
2022-11-07T08:51:04.663Z,84.21
2022-11-07T08:54:07.560Z,84.29
2022-11-07T08:57:10.770Z,84.44
2022-11-07T09:00:14.194Z,84.77
2022-11-07T09:03:44.420Z,84.81
2022-11-07T09:06:39.647Z,84.94
2022-11-07T09:09:42.247Z,84.63
2022-11-07T09:12:49.930Z,84.83
2022-11-07T09:15:57.366Z,84.83
2022-11-07T09:19:00.230Z,85.06
2022-11-07T09:22:02.973Z,85.27
2022-11-07T09:25:06.463Z,85.09
2022-11-07T09:28:09.248Z,85.48
2022-11-07T09:31:12.427Z,85.28
2022-11-07T09:34:15.068Z,85.37
2022-11-07T09:37:18.316Z,85.45
2022-11-07T09:40:28.878Z,84.91
2022-11-07T09:43:53.191Z,85.62
2022-11-07T09:47:06.773Z,85.56
2022-11-07T09:50:31.986Z,85.85
2022-11-07T09:53:42.881Z,86.56
2022-11-07T09:56:46.997Z,85.81
2022-11-07T09:59:55.403Z,84.64
2022-11-07T10:03:00.914Z,85.32
2022-11-07T10:06:25.107Z,85.43
2022-11-07T10:09:39.748Z,85.32
2022-11-07T10:13:28.401Z,85.04
2022-11-07T10:16:49.848Z,85.08
2022-11-07T10:20:07.573Z,84.04
2022-11-07T10:23:29.421Z,84.55
2022-11-07T10:26:32.721Z,82.89
2022-11-07T10:29:48.128Z,83.04
2022-11-07T10:33:05.480Z,83.36
2022-11-07T10:36:25.674Z,85.21
2022-11-07T10:39:32.114Z,83.65
2022-11-07T10:42:34.794Z,82.56
2022-11-07T10:45:39.757Z,83.26
2022-11-07T10:48:57.175Z,83.20
2022-11-07T10:52:17.012Z,83.64
2022-11-07T10:55:20.021Z,81.37
2022-11-07T10:58:31.237Z,81.12
2022-11-07T11:01:34.034Z,80.66
2022-11-07T11:04:38.568Z,81.04
2022-11-07T11:07:41.581Z,79.84
2022-11-07T11:10:44.805Z,79.51
2022-11-07T11:13:48.560Z,78.21
2022-11-07T11:16:56.653Z,76.22
2022-11-07T11:19:59.577Z,73.91
2022-11-07T11:23:06.357Z,69.59
2022-11-07T11:26:36.339Z,64.96
2022-11-07T11:29:58.172Z,60.73
2022-11-07T11:33:20.386Z,60.45
2022-11-07T11:36:28.735Z,61.84
2022-11-07T11:40:00.492Z,62.75
2022-11-07T11:43:23.078Z,61.60
2022-11-07T11:46:32.288Z,58.69
2022-11-07T11:49:59.482Z,57.38
2022-11-07T11:53:02.164Z,51.97
2022-11-07T11:56:08.055Z,52.47
2022-11-07T12:00:01.102Z,54.51
2022-11-07T12:03:34.372Z,58.11
2022-11-07T12:06:42.494Z,58.69
2022-11-07T12:09:47.399Z,58.80
2022-11-07T12:12:53.410Z,57.24
2022-11-07T12:16:11.505Z,54.99
2022-11-07T12:19:23.062Z,54.94
2022-11-07T12:22:26.841Z,57.40
2022-11-07T12:25:37.726Z,60.17
2022-11-07T12:28:44.497Z,59.99
2022-11-07T12:32:19.402Z,60.09
2022-11-07T12:35:28.293Z,60.01
2022-11-07T12:38:37.811Z,59.83
2022-11-07T12:41:52.375Z,62.23
2022-11-07T12:45:07.058Z,62.67
2022-11-07T12:48:28.075Z,63.21
2022-11-07T12:51:47.206Z,63.07
2022-11-07T12:55:02.480Z,61.74
2022-11-07T12:58:15.056Z,57.61
2022-11-07T13:01:26.668Z,53.71
2022-11-07T13:05:12.651Z,54.03
2022-11-07T13:08:35.082Z,56.32
2022-11-07T13:11:38.149Z,55.78
2022-11-07T13:14:42.632Z,53.89
2022-11-07T13:17:47.299Z,52.96
2022-11-07T13:21:00.134Z,52.42
2022-11-07T13:24:06.695Z,53.99
2022-11-07T13:27:32.379Z,56.18
2022-11-07T13:30:40.378Z,57.05
2022-11-07T13:33:42.984Z,58.49
2022-11-07T13:36:49.518Z,60.17
2022-11-07T13:39:58.689Z,61.25
2022-11-07T13:43:10.354Z,62.00
2022-11-07T13:46:31.672Z,63.06
2022-11-07T13:49:45.055Z,64.50
2022-11-07T13:53:07.220Z,66.36
2022-11-07T13:56:29.098Z,67.18
2022-11-07T13:59:44.837Z,69.30
2022-11-07T14:02:52.961Z,67.86
2022-11-07T14:05:56.716Z,69.44
2022-11-07T14:08:59.324Z,69.40
2022-11-07T14:12:03.769Z,68.03
2022-11-07T14:15:13.807Z,70.02
2022-11-07T14:18:18.980Z,69.69
2022-11-07T14:21:35.276Z,69.93
2022-11-07T14:24:38.330Z,70.23
2022-11-07T14:27:46.401Z,73.14
2022-11-07T14:30:51.688Z,72.20
2022-11-07T14:33:57.243Z,73.05
2022-11-07T14:37:05.823Z,74.09
2022-11-07T14:40:10.619Z,74.98
2022-11-07T14:43:20.867Z,74.92
2022-11-07T14:46:25.416Z,74.29
2022-11-07T14:49:33.276Z,74.60
2022-11-07T14:53:00.040Z,75.42
2022-11-07T14:56:08.722Z,75.33
2022-11-07T14:59:14.946Z,75.33
2022-11-07T15:02:27.439Z,75.72
2022-11-07T15:05:35.911Z,76.44
2022-11-07T15:08:39.238Z,77.65
2022-11-07T15:12:01.620Z,77.96
2022-11-07T15:15:13.113Z,78.63
2022-11-07T15:18:26.663Z,78.88
2022-11-07T15:21:35.716Z,79.27
2022-11-07T15:24:46.387Z,80.56
2022-11-07T15:27:49.325Z,80.85
2022-11-07T15:30:54.944Z,80.91
2022-11-07T15:34:00.791Z,81.33
2022-11-07T15:37:15.377Z,82.23
2022-11-07T15:40:20.636Z,83.25
2022-11-07T15:43:23.850Z,83.21
2022-11-07T15:46:35.661Z,83.25
2022-11-07T15:49:38.233Z,83.52
2022-11-07T15:52:41.201Z,83.63
2022-11-07T15:55:45.055Z,83.25
2022-11-07T15:58:48.360Z,84.70
2022-11-07T16:01:51.114Z,84.28
2022-11-07T16:04:54.378Z,84.43
2022-11-07T16:07:58.455Z,84.49
2022-11-07T16:11:02.514Z,84.84
2022-11-07T16:14:34.483Z,84.16
2022-11-07T16:17:29.848Z,83.97
2022-11-07T16:20:33.779Z,83.46
2022-11-07T16:23:37.794Z,83.16
2022-11-07T16:26:40.507Z,84.19
2022-11-07T16:29:44.500Z,84.72
2022-11-07T16:32:47.619Z,84.28
2022-11-07T16:35:53.429Z,84.21
2022-11-07T16:38:56.383Z,84.89
2022-11-07T16:41:59.240Z,84.37
2022-11-07T16:45:02.570Z,85.81
2022-11-07T16:48:06.067Z,85.24
2022-11-07T16:51:15.022Z,85.30
2022-11-07T16:54:18.598Z,85.42
2022-11-07T16:57:25.101Z,85.90
2022-11-07T17:00:29.124Z,85.38
2022-11-07T17:03:33.606Z,85.49
2022-11-07T17:06:37.439Z,84.62
2022-11-07T17:09:40.573Z,85.23
2022-11-07T17:12:44.184Z,85.30
2022-11-07T17:15:48.097Z,86.06
2022-11-07T17:18:52.057Z,85.73
2022-11-07T17:21:55.590Z,85.35
2022-11-07T17:24:59.096Z,85.36
2022-11-07T17:28:04.153Z,86.43
2022-11-07T17:31:07.962Z,85.74
2022-11-07T17:34:11.077Z,85.37
2022-11-07T17:37:18.449Z,85.62
2022-11-07T17:40:29.794Z,85.42
2022-11-07T17:43:33.091Z,85.42
2022-11-07T17:46:37.249Z,85.16
2022-11-07T17:49:40.388Z,85.99
2022-11-07T17:52:43.369Z,86.29
2022-11-07T17:55:46.662Z,85.84
2022-11-07T17:58:54.050Z,85.75
2022-11-07T18:01:57.485Z,85.29
2022-11-07T18:05:00.825Z,86.30
2022-11-07T18:08:04.120Z,86.41
2022-11-07T18:11:07.350Z,86.19
2022-11-07T18:14:12.317Z,85.84
2022-11-07T18:17:15.703Z,85.85
2022-11-07T18:20:18.340Z,86.43
2022-11-07T18:23:21.341Z,86.49
2022-11-07T18:26:31.238Z,86.12
2022-11-07T18:29:36.273Z,85.74
2022-11-07T18:32:39.795Z,85.95
2022-11-07T18:35:44.455Z,85.97
2022-11-07T18:38:48.065Z,86.01
2022-11-07T18:41:52.446Z,85.88
2022-11-07T18:44:55.491Z,85.86
2022-11-07T18:47:59.381Z,86.08
2022-11-07T18:51:03.456Z,85.93
2022-11-07T18:54:07.484Z,86.22
2022-11-07T18:57:10.448Z,85.92
2022-11-07T19:00:15.557Z,86.28
2022-11-07T19:03:19.609Z,87.81
2022-11-07T19:06:25.533Z,88.77
2022-11-07T19:09:32.212Z,87.69
2022-11-07T19:12:36.276Z,87.41
2022-11-07T19:15:40.109Z,86.94
2022-11-07T19:18:49.192Z,86.76
2022-11-07T19:21:52.962Z,87.15
2022-11-07T19:24:56.737Z,87.25
2022-11-07T19:28:00.239Z,88.11
2022-11-07T19:31:08.644Z,87.58
2022-11-07T19:34:11.320Z,86.83
2022-11-07T19:37:14.516Z,87.01
2022-11-07T19:40:17.715Z,87.24
2022-11-07T19:43:21.243Z,87.32
2022-11-07T19:46:25.667Z,86.99
2022-11-07T19:49:29.183Z,87.35
2022-11-07T19:52:34.102Z,86.85
2022-11-07T19:55:38.364Z,86.54
2022-11-07T19:58:43.208Z,87.06
2022-11-07T20:02:04.142Z,87.36
2022-11-07T20:05:09.995Z,87.55
2022-11-07T20:08:13.158Z,87.46
2022-11-07T20:11:23.473Z,87.08
2022-11-07T20:14:27.645Z,86.89
2022-11-07T20:17:31.290Z,87.29
2022-11-07T20:20:34.027Z,87.59
2022-11-07T20:23:37.303Z,88.44
2022-11-07T20:26:40.925Z,87.88
2022-11-07T20:29:44.389Z,87.67
2022-11-07T20:32:47.823Z,87.33
2022-11-07T20:36:03.121Z,87.37
2022-11-07T20:39:15.860Z,86.70
2022-11-07T20:42:19.427Z,85.79
2022-11-07T20:45:22.525Z,87.70
2022-11-07T20:48:26.007Z,88.47
2022-11-07T20:51:30.763Z,89.21
2022-11-07T20:54:36.303Z,88.43
2022-11-07T20:57:41.427Z,88.69
2022-11-07T21:00:47.437Z,87.86
2022-11-07T21:03:53.243Z,88.58
2022-11-07T21:06:56.816Z,88.41
2022-11-07T21:10:00.647Z,88.69
2022-11-07T21:13:05.652Z,88.81
2022-11-07T21:16:09.335Z,89.03
2022-11-07T21:19:16.717Z,88.60
2022-11-07T21:22:19.439Z,88.00
2022-11-07T21:25:24.044Z,87.86
2022-11-07T21:28:27.085Z,88.10
2022-11-07T21:31:31.511Z,88.07
2022-11-07T21:34:37.485Z,88.75
2022-11-07T21:37:40.679Z,88.47
2022-11-07T21:40:43.330Z,88.34
2022-11-07T21:43:46.790Z,88.58
2022-11-07T21:46:49.368Z,88.67
2022-11-07T21:49:52.275Z,88.87
2022-11-07T21:52:56.668Z,90.63
2022-11-07T21:56:00.540Z,89.28
2022-11-07T21:59:06.690Z,88.47
2022-11-07T22:02:12.779Z,89.15
2022-11-07T22:05:15.761Z,88.61
2022-11-07T22:08:23.427Z,88.38
2022-11-07T22:11:26.792Z,88.79
2022-11-07T22:14:29.460Z,89.18
2022-11-07T22:17:32.279Z,89.29
2022-11-07T22:20:34.886Z,89.37
2022-11-07T22:23:38.939Z,89.15
2022-11-07T22:26:41.679Z,89.33
2022-11-07T22:29:47.087Z,88.68
2022-11-07T22:32:51.799Z,88.51
2022-11-07T22:35:54.682Z,87.84
2022-11-07T22:38:58.398Z,88.62
2022-11-07T22:42:01.224Z,90.24
2022-11-07T22:45:04.045Z,89.76
2022-11-07T22:48:07.268Z,89.18
2022-11-07T22:51:35.003Z,89.17
2022-11-07T22:54:38.185Z,88.98
2022-11-07T22:57:41.067Z,89.71
2022-11-07T23:00:43.965Z,89.93
2022-11-07T23:03:47.496Z,90.09
2022-11-07T23:06:50.421Z,89.79
2022-11-07T23:09:57.974Z,89.83
2022-11-07T23:13:04.856Z,90.07
2022-11-07T23:16:18.114Z,89.35
2022-11-07T23:19:23.779Z,89.50
2022-11-07T23:22:32.070Z,89.77
2022-11-07T23:25:37.186Z,92.11
2022-11-07T23:28:40.791Z,92.34
2022-11-07T23:31:47.024Z,91.42
2022-11-07T23:34:50.508Z,91.12
2022-11-07T23:37:54.666Z,91.20
2022-11-07T23:41:01.598Z,90.79
2022-11-07T23:44:06.524Z,89.31
2022-11-07T23:47:30.483Z,89.03
2022-11-07T23:50:52.742Z,88.77
2022-11-07T23:54:14.733Z,89.49
2022-11-07T23:57:19.984Z,89.68
